sensor_id;sensor_type;location;lat;lon;timestamp;noise_LAeq;noise_LA_min;noise_LA_max;noise_LA01;noise_LA95
40465;Laerm;30489;48.982;8.394;2023-10-08T00:01:13;42.03;40.43;43.24;;
40465;Laerm;30489;48.982;8.394;2023-10-08T00:03:24;42.05;40.71;43.04;;
40465;Laerm;30489;48.982;8.394;2023-10-08T00:05:39;42.04;40.80;43.09;;
40465;Laerm;30489;48.982;8.394;2023-10-08T00:07:50;42.05;40.80;43.09;;
40465;Laerm;30489;48.982;8.394;2023-10-08T00:10:00;42.06;40.71;43.24;;
40465;Laerm;30489;48.982;8.394;2023-10-08T00:12:12;42.08;40.80;43.04;;
40465;Laerm;30489;48.982;8.394;2023-10-08T00:14:23;42.07;40.80;43.19;;
40465;Laerm;30489;48.982;8.394;2023-10-08T00:16:34;42.07;40.98;43.24;;
40465;Laerm;30489;48.982;8.394;2023-10-08T00:18:44;42.11;40.80;43.04;;
40465;Laerm;30489;48.982;8.394;2023-10-08T00:21:01;42.10;40.98;43.14;;
40465;Laerm;30489;48.982;8.394;2023-10-08T00:23:23;42.11;40.80;43.34;;
40465;Laerm;30489;48.982;8.394;2023-10-08T00:25:35;42.14;40.45;43.34;;
40465;Laerm;30489;48.982;8.394;2023-10-08T00:27:50;42.15;40.80;43.34;;
40465;Laerm;30489;48.982;8.394;2023-10-08T00:30:01;42.18;40.98;43.24;;
40465;Laerm;30489;48.982;8.394;2023-10-08T00:32:19;42.15;40.53;43.19;;
40465;Laerm;30489;48.982;8.394;2023-10-08T00:34:29;42.18;40.62;43.24;;
40465;Laerm;30489;48.982;8.394;2023-10-08T00:36:40;42.18;40.89;43.19;;
40465;Laerm;30489;48.982;8.394;2023-10-08T00:38:51;42.19;40.62;43.24;;
40465;Laerm;30489;48.982;8.394;2023-10-08T00:41:04;42.18;40.71;43.24;;
40465;Laerm;30489;48.982;8.394;2023-10-08T00:43:28;42.19;40.89;43.19;;
40465;Laerm;30489;48.982;8.394;2023-10-08T00:45:38;42.19;40.89;43.39;;
40465;Laerm;30489;48.982;8.394;2023-10-08T00:47:55;42.20;40.96;43.39;;
40465;Laerm;30489;48.982;8.394;2023-10-08T00:50:07;42.21;40.98;43.39;;
40465;Laerm;30489;48.982;8.394;2023-10-08T00:52:18;42.20;40.98;43.24;;
40465;Laerm;30489;48.982;8.394;2023-10-08T00:54:37;42.20;40.89;43.34;;
40465;Laerm;30489;48.982;8.394;2023-10-08T00:57:21;42.21;40.98;43.39;;
40465;Laerm;30489;48.982;8.394;2023-10-08T00:59:32;42.21;40.89;43.49;;
40465;Laerm;30489;48.982;8.394;2023-10-08T01:01:47;42.20;40.62;43.29;;
40465;Laerm;30489;48.982;8.394;2023-10-08T01:04:16;42.21;40.98;43.39;;
40465;Laerm;30489;48.982;8.394;2023-10-08T01:06:26;42.21;40.98;43.24;;
40465;Laerm;30489;48.982;8.394;2023-10-08T01:08:39;42.21;40.62;43.39;;
40465;Laerm;30489;48.982;8.394;2023-10-08T01:10:55;42.20;40.89;43.39;;
40465;Laerm;30489;48.982;8.394;2023-10-08T01:13:10;42.20;40.98;43.49;;
40465;Laerm;30489;48.982;8.394;2023-10-08T01:15:25;42.20;40.89;43.39;;
40465;Laerm;30489;48.982;8.394;2023-10-08T01:17:38;42.19;40.80;43.24;;
40465;Laerm;30489;48.982;8.394;2023-10-08T01:19:58;42.20;40.89;43.49;;
40465;Laerm;30489;48.982;8.394;2023-10-08T01:22:29;42.21;40.80;43.29;;
40465;Laerm;30489;48.982;8.394;2023-10-08T01:24:40;42.20;40.89;43.19;;
40465;Laerm;30489;48.982;8.394;2023-10-08T01:26:52;42.19;40.71;43.34;;
40465;Laerm;30489;48.982;8.394;2023-10-08T01:29:03;42.19;40.62;43.24;;
40465;Laerm;30489;48.982;8.394;2023-10-08T01:31:16;42.19;40.80;43.29;;
40465;Laerm;30489;48.982;8.394;2023-10-08T01:33:26;42.20;40.62;43.39;;
40465;Laerm;30489;48.982;8.394;2023-10-08T01:35:41;42.19;40.80;43.24;;
40465;Laerm;30489;48.982;8.394;2023-10-08T01:37:52;42.19;40.71;43.29;;
40465;Laerm;30489;48.982;8.394;2023-10-08T01:40:02;42.18;40.80;43.44;;
40465;Laerm;30489;48.982;8.394;2023-10-08T01:42:16;42.19;40.80;43.39;;
40465;Laerm;30489;48.982;8.394;2023-10-08T01:44:27;42.19;40.89;43.39;;
40465;Laerm;30489;48.982;8.394;2023-10-08T01:46:39;42.19;40.62;43.54;;
40465;Laerm;30489;48.982;8.394;2023-10-08T01:48:52;42.19;40.80;43.39;;
40465;Laerm;30489;48.982;8.394;2023-10-08T01:51:19;42.18;40.98;43.29;;
40465;Laerm;30489;48.982;8.394;2023-10-08T01:53:38;42.20;41.06;43.24;;
40465;Laerm;30489;48.982;8.394;2023-10-08T01:55:51;42.20;40.96;43.24;;
40465;Laerm;30489;48.982;8.394;2023-10-08T01:58:03;42.18;40.80;43.29;;
40465;Laerm;30489;48.982;8.394;2023-10-08T02:00:14;42.19;40.98;43.29;;
40465;Laerm;30489;48.982;8.394;2023-10-08T02:02:29;42.19;40.80;43.29;;
40465;Laerm;30489;48.982;8.394;2023-10-08T02:04:39;42.18;40.98;43.24;;
40465;Laerm;30489;48.982;8.394;2023-10-08T02:06:49;42.18;40.80;43.24;;
40465;Laerm;30489;48.982;8.394;2023-10-08T02:09:01;42.19;40.98;43.34;;
40465;Laerm;30489;48.982;8.394;2023-10-08T02:11:17;42.18;40.89;43.39;;
40465;Laerm;30489;48.982;8.394;2023-10-08T02:13:27;42.19;40.89;43.44;;
40465;Laerm;30489;48.982;8.394;2023-10-08T02:15:49;42.19;40.71;43.24;;
40465;Laerm;30489;48.982;8.394;2023-10-08T02:18:03;42.18;40.80;43.29;;
40465;Laerm;30489;48.982;8.394;2023-10-08T02:20:13;42.17;40.71;43.24;;
40465;Laerm;30489;48.982;8.394;2023-10-08T02:22:26;42.17;40.71;43.29;;
40465;Laerm;30489;48.982;8.394;2023-10-08T02:24:37;42.19;40.98;43.19;;
40465;Laerm;30489;48.982;8.394;2023-10-08T02:26:47;42.18;40.71;43.34;;
40465;Laerm;30489;48.982;8.394;2023-10-08T02:28:58;42.17;40.80;43.24;;
40465;Laerm;30489;48.982;8.394;2023-10-08T02:31:09;42.17;40.71;43.24;;
40465;Laerm;30489;48.982;8.394;2023-10-08T02:33:19;42.18;40.80;43.49;;
40465;Laerm;30489;48.982;8.394;2023-10-08T02:35:30;42.18;40.89;43.24;;
40465;Laerm;30489;48.982;8.394;2023-10-08T02:37:41;42.17;40.89;43.19;;
40465;Laerm;30489;48.982;8.394;2023-10-08T02:39:51;42.18;40.89;43.29;;
40465;Laerm;30489;48.982;8.394;2023-10-08T02:42:01;42.18;40.80;43.14;;
40465;Laerm;30489;48.982;8.394;2023-10-08T02:44:15;42.18;40.89;43.24;;
40465;Laerm;30489;48.982;8.394;2023-10-08T02:46:27;42.18;40.98;43.39;;
40465;Laerm;30489;48.982;8.394;2023-10-08T02:48:39;42.17;40.89;43.39;;
40465;Laerm;30489;48.982;8.394;2023-10-08T02:50:49;42.17;40.80;43.19;;
40465;Laerm;30489;48.982;8.394;2023-10-08T02:53:02;42.17;40.89;43.39;;
40465;Laerm;30489;48.982;8.394;2023-10-08T02:55:20;42.18;40.98;43.29;;
40465;Laerm;30489;48.982;8.394;2023-10-08T02:57:46;42.18;40.98;43.24;;
40465;Laerm;30489;48.982;8.394;2023-10-08T02:59:56;42.17;40.62;43.24;;
40465;Laerm;30489;48.982;8.394;2023-10-08T03:02:07;42.18;40.98;43.29;;
40465;Laerm;30489;48.982;8.394;2023-10-08T03:04:23;42.17;40.98;43.14;;
40465;Laerm;30489;48.982;8.394;2023-10-08T03:06:34;42.16;40.89;43.39;;
40465;Laerm;30489;48.982;8.394;2023-10-08T03:08:44;42.17;40.89;43.54;;
40465;Laerm;30489;48.982;8.394;2023-10-08T03:10:57;42.17;40.98;43.24;;
40465;Laerm;30489;48.982;8.394;2023-10-08T03:13:12;42.17;40.89;43.24;;
40465;Laerm;30489;48.982;8.394;2023-10-08T03:15:22;42.17;40.89;43.24;;
40465;Laerm;30489;48.982;8.394;2023-10-08T03:17:39;42.18;40.98;43.29;;
40465;Laerm;30489;48.982;8.394;2023-10-08T03:19:58;42.18;40.98;43.24;;
40465;Laerm;30489;48.982;8.394;2023-10-08T03:22:28;42.17;40.89;43.44;;
40465;Laerm;30489;48.982;8.394;2023-10-08T03:24:44;42.16;40.89;43.44;;
40465;Laerm;30489;48.982;8.394;2023-10-08T03:26:57;42.18;40.98;43.29;;
40465;Laerm;30489;48.982;8.394;2023-10-08T03:29:16;42.17;40.89;43.24;;
40465;Laerm;30489;48.982;8.394;2023-10-08T03:31:26;42.18;40.89;43.44;;
40465;Laerm;30489;48.982;8.394;2023-10-08T03:34:02;42.17;40.80;43.34;;
40465;Laerm;30489;48.982;8.394;2023-10-08T03:36:13;42.17;41.06;43.19;;
40465;Laerm;30489;48.982;8.394;2023-10-08T03:38:32;42.16;40.89;43.34;;
40465;Laerm;30489;48.982;8.394;2023-10-08T03:40:55;42.16;40.53;43.19;;
40465;Laerm;30489;48.982;8.394;2023-10-08T03:43:18;42.16;40.89;43.29;;
40465;Laerm;30489;48.982;8.394;2023-10-08T03:45:44;42.16;40.71;43.24;;
40465;Laerm;30489;48.982;8.394;2023-10-08T03:48:03;42.15;40.89;43.44;;
40465;Laerm;30489;48.982;8.394;2023-10-08T03:50:16;42.15;40.62;43.14;;
40465;Laerm;30489;48.982;8.394;2023-10-08T03:52:27;42.14;41.06;43.19;;
40465;Laerm;30489;48.982;8.394;2023-10-08T03:54:39;42.14;40.62;43.49;;
40465;Laerm;30489;48.982;8.394;2023-10-08T03:56:58;42.13;40.89;43.44;;
40465;Laerm;30489;48.982;8.394;2023-10-08T03:59:08;42.11;40.80;43.14;;
40465;Laerm;30489;48.982;8.394;2023-10-08T04:01:39;42.09;40.71;43.14;;
40465;Laerm;30489;48.982;8.394;2023-10-08T04:03:49;42.08;40.53;43.19;;
40465;Laerm;30489;48.982;8.394;2023-10-08T04:06:09;42.07;40.62;43.09;;
40465;Laerm;30489;48.982;8.394;2023-10-08T04:08:25;42.05;40.80;43.14;;
40465;Laerm;30489;48.982;8.394;2023-10-08T04:10:52;42.03;40.80;43.14;;
40465;Laerm;30489;48.982;8.394;2023-10-08T04:13:18;42.00;40.62;43.09;;
40465;Laerm;30489;48.982;8.394;2023-10-08T04:15:28;42.00;40.80;43.19;;
40465;Laerm;30489;48.982;8.394;2023-10-08T04:17:39;42.00;40.71;43.09;;
40465;Laerm;30489;48.982;8.394;2023-10-08T04:19:55;41.99;40.89;42.90;;
40465;Laerm;30489;48.982;8.394;2023-10-08T04:22:08;41.98;40.71;43.04;;
40465;Laerm;30489;48.982;8.394;2023-10-08T04:24:26;41.97;40.71;43.19;;
40465;Laerm;30489;48.982;8.394;2023-10-08T04:26:46;41.96;40.80;43.14;;
40465;Laerm;30489;48.982;8.394;2023-10-08T04:28:57;41.97;40.62;42.93;;
40465;Laerm;30489;48.982;8.394;2023-10-08T04:31:08;41.96;40.71;42.98;;
40465;Laerm;30489;48.982;8.394;2023-10-08T04:33:34;41.95;40.80;43.34;;
40465;Laerm;30489;48.982;8.394;2023-10-08T04:35:44;41.95;40.71;43.14;;
40465;Laerm;30489;48.982;8.394;2023-10-08T04:37:58;41.95;40.71;43.09;;
40465;Laerm;30489;48.982;8.394;2023-10-08T04:40:08;41.95;40.62;43.09;;
40465;Laerm;30489;48.982;8.394;2023-10-08T04:42:26;41.95;40.79;43.09;;
40465;Laerm;30489;48.982;8.394;2023-10-08T04:44:39;41.93;40.71;43.14;;
40465;Laerm;30489;48.982;8.394;2023-10-08T04:46:49;41.91;40.71;42.98;;
40465;Laerm;30489;48.982;8.394;2023-10-08T04:49:02;41.92;40.53;43.63;;
40465;Laerm;30489;48.982;8.394;2023-10-08T04:51:17;41.91;40.33;42.93;;
40465;Laerm;30489;48.982;8.394;2023-10-08T04:53:29;41.91;40.71;43.04;;
40465;Laerm;30489;48.982;8.394;2023-10-08T04:55:42;41.90;40.71;42.93;;
40465;Laerm;30489;48.982;8.394;2023-10-08T04:57:58;41.90;40.62;42.98;;
40465;Laerm;30489;48.982;8.394;2023-10-08T05:00:09;41.89;40.53;42.88;;
40465;Laerm;30489;48.982;8.394;2023-10-08T05:02:25;41.88;40.71;43.24;;
40465;Laerm;30489;48.982;8.394;2023-10-08T05:04:46;41.87;40.23;42.98;;
40465;Laerm;30489;48.982;8.394;2023-10-08T05:06:57;41.86;40.62;43.04;;
40465;Laerm;30489;48.982;8.394;2023-10-08T05:09:26;41.85;40.62;43.04;;
40465;Laerm;30489;48.982;8.394;2023-10-08T05:11:50;41.85;40.62;42.93;;
40465;Laerm;30489;48.982;8.394;2023-10-08T05:14:00;41.84;40.53;42.82;;
40465;Laerm;30489;48.982;8.394;2023-10-08T05:16:26;41.81;40.62;42.98;;
40465;Laerm;30489;48.982;8.394;2023-10-08T05:18:46;41.81;40.71;42.88;;
40465;Laerm;30489;48.982;8.394;2023-10-08T05:21:15;41.81;40.43;42.98;;
40465;Laerm;30489;48.982;8.394;2023-10-08T05:23:35;41.80;40.53;42.82;;
40465;Laerm;30489;48.982;8.394;2023-10-08T05:26:18;41.81;40.53;43.09;;
40465;Laerm;30489;48.982;8.394;2023-10-08T05:28:40;41.80;40.33;42.88;;
40465;Laerm;30489;48.982;8.394;2023-10-08T05:31:10;41.82;39.92;43.04;;
40465;Laerm;30489;48.982;8.394;2023-10-08T05:33:23;41.81;40.23;42.98;;
40465;Laerm;30489;48.982;8.394;2023-10-08T05:35:35;41.81;40.53;42.82;;
40465;Laerm;30489;48.982;8.394;2023-10-08T05:37:51;41.80;40.43;42.98;;
40465;Laerm;30489;48.982;8.394;2023-10-08T05:40:12;41.79;40.43;42.88;;
40465;Laerm;30489;48.982;8.394;2023-10-08T05:42:31;41.77;40.43;42.82;;
40465;Laerm;30489;48.982;8.394;2023-10-08T05:44:42;41.73;40.53;42.93;;
40465;Laerm;30489;48.982;8.394;2023-10-08T05:47:14;41.72;40.53;43.14;;
40465;Laerm;30489;48.982;8.394;2023-10-08T05:49:54;41.72;40.23;42.82;;
40465;Laerm;30489;48.982;8.394;2023-10-08T05:52:24;41.71;40.53;42.82;;
40465;Laerm;30489;48.982;8.394;2023-10-08T05:55:00;41.73;40.43;43.29;;
40465;Laerm;30489;48.982;8.394;2023-10-08T05:57:35;41.72;40.53;42.76;;
40465;Laerm;30489;48.982;8.394;2023-10-08T05:59:48;41.74;40.43;42.88;;
40465;Laerm;30489;48.982;8.394;2023-10-08T06:02:05;41.71;40.43;42.88;;
40465;Laerm;30489;48.982;8.394;2023-10-08T06:04:35;41.71;40.62;42.82;;
40465;Laerm;30489;48.982;8.394;2023-10-08T06:07:04;41.72;40.33;42.82;;
40465;Laerm;30489;48.982;8.394;2023-10-08T06:09:33;41.72;40.53;42.88;;
40465;Laerm;30489;48.982;8.394;2023-10-08T06:11:47;41.71;40.13;42.93;;
40465;Laerm;30489;48.982;8.394;2023-10-08T06:14:21;41.68;40.33;42.76;;
40465;Laerm;30489;48.982;8.394;2023-10-08T06:17:02;41.68;40.33;42.71;;
40465;Laerm;30489;48.982;8.394;2023-10-08T06:19:31;41.71;40.43;42.88;;
40465;Laerm;30489;48.982;8.394;2023-10-08T06:21:42;41.69;40.43;42.98;;
40465;Laerm;30489;48.982;8.394;2023-10-08T06:23:53;41.68;40.13;42.76;;
40465;Laerm;30489;48.982;8.394;2023-10-08T06:26:06;41.67;40.53;42.88;;
40465;Laerm;30489;48.982;8.394;2023-10-08T06:28:19;41.68;40.43;42.76;;
40465;Laerm;30489;48.982;8.394;2023-10-08T06:30:30;41.66;40.43;42.82;;
40465;Laerm;30489;48.982;8.394;2023-10-08T06:32:44;41.67;40.53;42.76;;
40465;Laerm;30489;48.982;8.394;2023-10-08T06:34:55;41.66;40.43;42.88;;
40465;Laerm;30489;48.982;8.394;2023-10-08T06:37:06;41.66;40.43;43.09;;
40465;Laerm;30489;48.982;8.394;2023-10-08T06:39:18;41.64;40.33;42.98;;
40465;Laerm;30489;48.982;8.394;2023-10-08T06:41:28;41.66;40.33;42.71;;
40465;Laerm;30489;48.982;8.394;2023-10-08T06:43:44;41.66;40.53;42.79;;
40465;Laerm;30489;48.982;8.394;2023-10-08T06:45:59;41.67;40.43;42.98;;
40465;Laerm;30489;48.982;8.394;2023-10-08T06:48:09;41.66;40.33;42.76;;
40465;Laerm;30489;48.982;8.394;2023-10-08T06:50:27;41.67;40.33;42.79;;
40465;Laerm;30489;48.982;8.394;2023-10-08T06:52:39;41.66;40.43;42.88;;
40465;Laerm;30489;48.982;8.394;2023-10-08T06:54:53;41.67;40.43;42.93;;
40465;Laerm;30489;48.982;8.394;2023-10-08T06:57:03;41.65;40.33;42.71;;
40465;Laerm;30489;48.982;8.394;2023-10-08T06:59:13;41.63;40.43;42.98;;
40465;Laerm;30489;48.982;8.394;2023-10-08T07:01:24;41.62;40.33;42.71;;
40465;Laerm;30489;48.982;8.394;2023-10-08T07:03:35;41.64;40.33;43.04;;
40465;Laerm;30489;48.982;8.394;2023-10-08T07:05:49;41.64;40.43;42.82;;
40465;Laerm;30489;48.982;8.394;2023-10-08T07:08:12;41.62;40.23;42.82;;
40465;Laerm;30489;48.982;8.394;2023-10-08T07:10:25;41.58;40.27;42.59;;
40465;Laerm;30489;48.982;8.394;2023-10-08T07:12:36;41.57;40.13;42.82;;
40465;Laerm;30489;48.982;8.394;2023-10-08T07:14:46;41.57;40.43;42.82;;
40465;Laerm;30489;48.982;8.394;2023-10-08T07:16:57;41.55;40.23;44.54;;
40465;Laerm;30489;48.982;8.394;2023-10-08T07:19:08;41.56;40.33;42.88;;
40465;Laerm;30489;48.982;8.394;2023-10-08T07:21:27;41.56;40.23;42.76;;
40465;Laerm;30489;48.982;8.394;2023-10-08T07:23:57;41.54;40.23;42.76;;
40465;Laerm;30489;48.982;8.394;2023-10-08T07:26:09;41.51;40.23;42.74;;
40465;Laerm;30489;48.982;8.394;2023-10-08T07:28:22;41.49;40.23;42.71;;
40465;Laerm;30489;48.982;8.394;2023-10-08T07:30:37;41.51;40.33;42.82;;
40465;Laerm;30489;48.982;8.394;2023-10-08T07:32:53;41.54;40.23;42.76;;
40465;Laerm;30489;48.982;8.394;2023-10-08T07:35:08;41.50;40.23;44.03;;
40465;Laerm;30489;48.982;8.394;2023-10-08T07:37:33;41.49;40.13;42.59;;
40465;Laerm;30489;48.982;8.394;2023-10-08T07:39:43;41.50;39.92;42.82;;
40465;Laerm;30489;48.982;8.394;2023-10-08T07:41:57;41.50;40.13;42.59;;
40465;Laerm;30489;48.982;8.394;2023-10-08T07:44:08;41.56;40.23;42.65;;
40465;Laerm;30489;48.982;8.394;2023-10-08T07:46:19;41.60;40.33;44.83;;
40465;Laerm;30489;48.982;8.394;2023-10-08T07:48:29;41.64;40.23;42.65;;
40465;Laerm;30489;48.982;8.394;2023-10-08T07:50:43;41.66;40.43;43.54;;
40465;Laerm;30489;48.982;8.394;2023-10-08T07:52:55;41.72;40.53;42.88;;
40465;Laerm;30489;48.982;8.394;2023-10-08T07:55:06;41.72;40.13;42.88;;
40465;Laerm;30489;48.982;8.394;2023-10-08T07:57:16;41.76;40.23;42.82;;
40465;Laerm;30489;48.982;8.394;2023-10-08T07:59:36;41.82;40.23;42.98;;
40465;Laerm;30489;48.982;8.394;2023-10-08T08:01:48;41.88;40.62;42.93;;
40465;Laerm;30489;48.982;8.394;2023-10-08T08:03:58;41.91;40.71;43.04;;
40465;Laerm;30489;48.982;8.394;2023-10-08T08:06:09;41.94;40.53;43.04;;
40465;Laerm;30489;48.982;8.394;2023-10-08T08:08:19;41.96;40.71;43.09;;
40465;Laerm;30489;48.982;8.394;2023-10-08T08:10:32;41.97;40.80;42.88;;
40465;Laerm;30489;48.982;8.394;2023-10-08T08:12:47;41.97;40.71;43.09;;
40465;Laerm;30489;48.982;8.394;2023-10-08T08:15:00;41.98;40.71;43.04;;
40465;Laerm;30489;48.982;8.394;2023-10-08T08:17:13;42.00;40.43;43.19;;
40465;Laerm;30489;48.982;8.394;2023-10-08T08:19:24;42.01;40.80;43.14;;
40465;Laerm;30489;48.982;8.394;2023-10-08T08:21:34;41.99;40.62;43.09;;
40465;Laerm;30489;48.982;8.394;2023-10-08T08:23:45;42.02;40.80;43.14;;
40465;Laerm;30489;48.982;8.394;2023-10-08T08:25:58;42.02;40.71;43.09;;
40465;Laerm;30489;48.982;8.394;2023-10-08T08:28:23;41.98;40.71;43.09;;
40465;Laerm;30489;48.982;8.394;2023-10-08T08:30:35;42.00;40.80;42.93;;
40465;Laerm;30489;48.982;8.394;2023-10-08T08:32:47;42.01;40.89;42.98;;
40465;Laerm;30489;48.982;8.394;2023-10-08T08:34:58;41.99;40.80;43.14;;
40465;Laerm;30489;48.982;8.394;2023-10-08T08:37:08;42.00;40.71;43.24;;
40465;Laerm;30489;48.982;8.394;2023-10-08T08:39:18;42.01;40.80;43.09;;
40465;Laerm;30489;48.982;8.394;2023-10-08T08:41:42;42.05;40.80;43.19;;
40465;Laerm;30489;48.982;8.394;2023-10-08T08:43:54;42.07;40.71;43.14;;
40465;Laerm;30489;48.982;8.394;2023-10-08T08:46:08;42.06;40.89;43.14;;
40465;Laerm;30489;48.982;8.394;2023-10-08T08:48:22;42.06;40.98;43.04;;
40465;Laerm;30489;48.982;8.394;2023-10-08T08:50:32;42.06;40.89;43.09;;
40465;Laerm;30489;48.982;8.394;2023-10-08T08:52:44;42.07;40.80;43.14;;
40465;Laerm;30489;48.982;8.394;2023-10-08T08:54:55;42.08;40.89;43.24;;
40465;Laerm;30489;48.982;8.394;2023-10-08T08:57:06;42.11;40.71;43.19;;
40465;Laerm;30489;48.982;8.394;2023-10-08T08:59:23;42.10;40.89;43.19;;
40465;Laerm;30489;48.982;8.394;2023-10-08T09:01:34;42.13;40.89;43.39;;
40465;Laerm;30489;48.982;8.394;2023-10-08T09:03:46;42.13;40.80;43.14;;
40465;Laerm;30489;48.982;8.394;2023-10-08T09:05:58;42.12;40.53;43.09;;
40465;Laerm;30489;48.982;8.394;2023-10-08T09:08:09;42.16;41.06;43.29;;
40465;Laerm;30489;48.982;8.394;2023-10-08T09:10:19;42.16;40.80;43.19;;
40465;Laerm;30489;48.982;8.394;2023-10-08T09:12:31;42.17;40.89;43.24;;
40465;Laerm;30489;48.982;8.394;2023-10-08T09:14:43;42.17;40.89;43.19;;
40465;Laerm;30489;48.982;8.394;2023-10-08T09:16:57;42.15;41.06;43.14;;
40465;Laerm;30489;48.982;8.394;2023-10-08T09:19:09;42.16;41.06;43.14;;
40465;Laerm;30489;48.982;8.394;2023-10-08T09:21:25;42.15;40.89;43.49;;
40465;Laerm;30489;48.982;8.394;2023-10-08T09:23:40;42.14;40.98;43.24;;
40465;Laerm;30489;48.982;8.394;2023-10-08T09:25:53;42.14;40.89;43.19;;
40465;Laerm;30489;48.982;8.394;2023-10-08T09:28:12;42.14;40.89;43.14;;
40465;Laerm;30489;48.982;8.394;2023-10-08T09:30:28;42.17;40.89;43.33;;
40465;Laerm;30489;48.982;8.394;2023-10-08T09:32:39;42.17;40.89;43.14;;
40465;Laerm;30489;48.982;8.394;2023-10-08T09:34:52;42.17;40.89;43.19;;
40465;Laerm;30489;48.982;8.394;2023-10-08T09:37:03;42.18;40.98;43.29;;
40465;Laerm;30489;48.982;8.394;2023-10-08T09:39:13;42.18;40.98;43.24;;
40465;Laerm;30489;48.982;8.394;2023-10-08T09:41:34;42.17;40.80;43.34;;
40465;Laerm;30489;48.982;8.394;2023-10-08T09:43:46;42.20;40.88;43.39;;
40465;Laerm;30489;48.982;8.394;2023-10-08T09:46:00;42.18;40.98;43.24;;
40465;Laerm;30489;48.982;8.394;2023-10-08T09:48:16;42.19;40.98;43.34;;
40465;Laerm;30489;48.982;8.394;2023-10-08T09:50:33;42.18;40.89;43.24;;
40465;Laerm;30489;48.982;8.394;2023-10-08T09:55:17;42.18;40.98;43.19;;
40465;Laerm;30489;48.982;8.394;2023-10-08T09:57:27;42.19;40.80;43.42;;
40465;Laerm;30489;48.982;8.394;2023-10-08T09:59:38;42.19;40.80;43.34;;
40465;Laerm;30489;48.982;8.394;2023-10-08T10:01:51;42.19;40.89;43.24;;
40465;Laerm;30489;48.982;8.394;2023-10-08T10:04:08;42.19;40.89;43.39;;
40465;Laerm;30489;48.982;8.394;2023-10-08T10:06:19;42.20;41.06;43.39;;
40465;Laerm;30489;48.982;8.394;2023-10-08T10:08:30;42.21;40.98;43.39;;
40465;Laerm;30489;48.982;8.394;2023-10-08T10:10:45;42.20;40.89;43.29;;
40465;Laerm;30489;48.982;8.394;2023-10-08T10:12:58;42.20;40.98;43.14;;
40465;Laerm;30489;48.982;8.394;2023-10-08T10:15:09;42.20;40.98;43.29;;
40465;Laerm;30489;48.982;8.394;2023-10-08T10:17:21;42.20;40.80;43.28;;
40465;Laerm;30489;48.982;8.394;2023-10-08T10:19:32;42.21;40.80;43.39;;
40465;Laerm;30489;48.982;8.394;2023-10-08T10:21:43;42.21;40.89;43.29;;
40465;Laerm;30489;48.982;8.394;2023-10-08T10:23:53;42.21;40.89;45.66;;
40465;Laerm;30489;48.982;8.394;2023-10-08T10:26:04;42.20;41.06;43.29;;
40465;Laerm;30489;48.982;8.394;2023-10-08T10:30:24;42.20;40.98;43.34;;
40465;Laerm;30489;48.982;8.394;2023-10-08T10:32:37;42.20;40.53;43.19;;
40465;Laerm;30489;48.982;8.394;2023-10-08T10:34:48;42.22;40.89;43.29;;
40465;Laerm;30489;48.982;8.394;2023-10-08T10:37:01;42.21;40.80;43.28;;
40465;Laerm;30489;48.982;8.394;2023-10-08T10:39:30;42.22;40.89;43.49;;
40465;Laerm;30489;48.982;8.394;2023-10-08T10:41:44;42.21;40.89;43.24;;
40465;Laerm;30489;48.982;8.394;2023-10-08T10:43:54;42.21;41.06;43.29;;
40465;Laerm;30489;48.982;8.394;2023-10-08T10:46:04;42.22;41.06;43.24;;
40465;Laerm;30489;48.982;8.394;2023-10-08T10:48:50;42.22;40.80;43.29;;
40465;Laerm;30489;48.982;8.394;2023-10-08T10:51:19;42.22;41.06;43.24;;
40465;Laerm;30489;48.982;8.394;2023-10-08T10:53:29;42.20;40.88;43.29;;
40465;Laerm;30489;48.982;8.394;2023-10-08T10:55:41;42.23;41.06;43.19;;
40465;Laerm;30489;48.982;8.394;2023-10-08T10:57:58;42.22;40.98;43.29;;
40465;Laerm;30489;48.982;8.394;2023-10-08T11:00:24;42.22;40.71;43.34;;
40465;Laerm;30489;48.982;8.394;2023-10-08T11:02:57;42.21;40.89;43.34;;
40465;Laerm;30489;48.982;8.394;2023-10-08T11:05:12;42.21;40.71;43.29;;
40465;Laerm;30489;48.982;8.394;2023-10-08T11:07:29;42.22;40.71;43.24;;
40465;Laerm;30489;48.982;8.394;2023-10-08T11:09:39;42.22;40.80;43.24;;
40465;Laerm;30489;48.982;8.394;2023-10-08T11:11:54;42.23;41.06;43.63;;
40465;Laerm;30489;48.982;8.394;2023-10-08T11:14:04;42.23;41.14;43.37;;
40465;Laerm;30489;48.982;8.394;2023-10-08T11:16:15;42.23;41.06;43.39;;
40465;Laerm;30489;48.982;8.394;2023-10-08T11:18:26;42.24;41.06;43.39;;
40465;Laerm;30489;48.982;8.394;2023-10-08T11:20:38;42.24;40.98;43.49;;
40465;Laerm;30489;48.982;8.394;2023-10-08T11:22:49;42.24;41.06;43.39;;
40465;Laerm;30489;48.982;8.394;2023-10-08T11:25:01;42.24;40.98;43.34;;
40465;Laerm;30489;48.982;8.394;2023-10-08T11:27:18;42.23;40.98;43.34;;
40465;Laerm;30489;48.982;8.394;2023-10-08T11:29:38;42.23;41.06;43.29;;
40465;Laerm;30489;48.982;8.394;2023-10-08T11:31:48;42.23;40.89;43.39;;
40465;Laerm;30489;48.982;8.394;2023-10-08T11:33:59;42.22;40.98;43.29;;
40465;Laerm;30489;48.982;8.394;2023-10-08T11:36:10;42.24;40.98;43.34;;
40465;Laerm;30489;48.982;8.394;2023-10-08T11:38:39;42.21;40.98;43.39;;
40465;Laerm;30489;48.982;8.394;2023-10-08T11:40:49;42.25;40.80;43.29;;
40465;Laerm;30489;48.982;8.394;2023-10-08T11:43:01;42.24;41.06;43.39;;
40465;Laerm;30489;48.982;8.394;2023-10-08T11:45:13;42.22;40.89;43.33;;
40465;Laerm;30489;48.982;8.394;2023-10-08T11:47:48;42.22;41.06;43.34;;
40465;Laerm;30489;48.982;8.394;2023-10-08T11:49:58;42.22;40.98;43.29;;
40465;Laerm;30489;48.982;8.394;2023-10-08T11:52:21;42.22;40.98;43.29;;
40465;Laerm;30489;48.982;8.394;2023-10-08T11:54:31;42.22;40.88;43.44;;
40465;Laerm;30489;48.982;8.394;2023-10-08T11:56:42;42.22;40.98;43.44;;
40465;Laerm;30489;48.982;8.394;2023-10-08T11:58:52;42.22;41.06;43.63;;
40465;Laerm;30489;48.982;8.394;2023-10-08T12:01:03;42.22;40.89;43.34;;
40465;Laerm;30489;48.982;8.394;2023-10-08T12:03:14;42.23;40.98;43.49;;
40465;Laerm;30489;48.982;8.394;2023-10-08T12:05:28;42.22;40.98;43.24;;
40465;Laerm;30489;48.982;8.394;2023-10-08T12:07:39;42.21;40.71;43.29;;
40465;Laerm;30489;48.982;8.394;2023-10-08T12:09:50;42.21;40.71;43.29;;
40465;Laerm;30489;48.982;8.394;2023-10-08T12:12:00;42.20;40.98;43.44;;
40465;Laerm;30489;48.982;8.394;2023-10-08T12:14:10;42.21;40.80;43.34;;
40465;Laerm;30489;48.982;8.394;2023-10-08T12:16:20;42.21;40.98;43.54;;
40465;Laerm;30489;48.982;8.394;2023-10-08T12:18:33;42.21;40.89;43.29;;
40465;Laerm;30489;48.982;8.394;2023-10-08T12:20:49;42.22;40.98;45.04;;
40465;Laerm;30489;48.982;8.394;2023-10-08T12:23:00;42.21;40.98;43.68;;
40465;Laerm;30489;48.982;8.394;2023-10-08T12:25:10;42.20;40.88;43.29;;
40465;Laerm;30489;48.982;8.394;2023-10-08T12:27:20;42.22;40.89;43.58;;
40465;Laerm;30489;48.982;8.394;2023-10-08T12:29:31;42.20;40.89;43.58;;
40465;Laerm;30489;48.982;8.394;2023-10-08T12:31:43;42.21;40.71;43.29;;
40465;Laerm;30489;48.982;8.394;2023-10-08T12:33:57;42.22;40.79;43.34;;
40465;Laerm;30489;48.982;8.394;2023-10-08T12:36:10;42.21;40.88;43.24;;
40465;Laerm;30489;48.982;8.394;2023-10-08T12:38:21;42.22;40.80;43.29;;
40465;Laerm;30489;48.982;8.394;2023-10-08T12:40:32;42.23;40.98;43.29;;